createdAt,value
2023-05-15T00:02:14.464Z,8.40
2023-05-15T00:04:41.214Z,8.40
2023-05-15T00:07:07.894Z,8.39
2023-05-15T00:09:34.518Z,8.37
2023-05-15T00:12:01.057Z,8.36
2023-05-15T00:14:27.593Z,8.33
2023-05-15T00:16:54.174Z,8.32
2023-05-15T00:19:20.946Z,8.29
2023-05-15T00:21:47.612Z,8.30
2023-05-15T00:24:14.309Z,8.29
2023-05-15T00:26:40.934Z,8.27
2023-05-15T00:29:07.491Z,8.22
2023-05-15T00:31:34.135Z,8.20
2023-05-15T00:34:00.850Z,8.17
2023-05-15T00:36:27.607Z,8.14
2023-05-15T00:38:54.228Z,8.11
2023-05-15T00:41:22.692Z,8.08
2023-05-15T00:43:51.123Z,8.04
2023-05-15T00:46:17.667Z,8.03
2023-05-15T00:48:44.377Z,8.01
2023-05-15T00:51:11.832Z,8.00
2023-05-15T00:53:38.728Z,7.97
2023-05-15T00:56:05.978Z,7.94
2023-05-15T00:58:33.636Z,7.90
2023-05-15T01:01:00.421Z,7.88
2023-05-15T01:03:27.229Z,7.83
2023-05-15T01:05:53.996Z,7.81
2023-05-15T01:08:42.777Z,7.77
2023-05-15T01:11:09.497Z,7.74
2023-05-15T01:13:36.167Z,7.71
2023-05-15T01:16:02.927Z,7.68
2023-05-15T01:18:32.600Z,7.65
2023-05-15T01:20:59.293Z,7.64
2023-05-15T01:23:44.265Z,7.62
2023-05-15T01:26:22.994Z,7.61
2023-05-15T01:28:56.469Z,7.61
2023-05-15T01:31:24.608Z,7.61
2023-05-15T01:33:54.924Z,7.61
2023-05-15T01:36:24.769Z,7.61
2023-05-15T01:38:53.692Z,7.61
2023-05-15T01:41:32.211Z,7.60
2023-05-15T01:44:21.742Z,7.58
2023-05-15T01:46:53.859Z,7.58
2023-05-15T01:49:23.395Z,7.57
2023-05-15T01:51:51.264Z,7.57
2023-05-15T01:54:18.457Z,7.56
2023-05-15T01:56:46.106Z,7.57
2023-05-15T01:59:13.631Z,7.57
2023-05-15T02:01:41.606Z,7.59
2023-05-15T02:04:09.368Z,7.61
2023-05-15T02:06:36.303Z,7.63
2023-05-15T02:09:03.492Z,7.66
2023-05-15T02:11:30.050Z,7.70
2023-05-15T02:13:57.285Z,7.74
2023-05-15T02:16:23.967Z,7.78
2023-05-15T02:18:52.657Z,7.81
2023-05-15T02:21:39.398Z,7.86
2023-05-15T02:24:06.027Z,7.88
2023-05-15T02:26:38.605Z,7.93
2023-05-15T02:29:24.987Z,7.99
2023-05-15T02:31:54.605Z,8.05
2023-05-15T02:34:28.148Z,8.11
2023-05-15T02:36:58.137Z,8.17
2023-05-15T02:39:25.468Z,8.22
2023-05-15T02:41:53.149Z,8.31
2023-05-15T02:44:20.219Z,8.36
2023-05-15T02:46:47.714Z,8.43
2023-05-15T02:49:14.923Z,8.51
2023-05-15T02:51:41.888Z,8.57
2023-05-15T02:54:09.650Z,8.63
2023-05-15T02:56:36.189Z,8.72
2023-05-15T02:59:03.001Z,8.81
2023-05-15T03:01:29.743Z,8.88
2023-05-15T03:03:56.330Z,9.07
2023-05-15T03:06:22.935Z,9.19
2023-05-15T03:08:49.514Z,9.30
2023-05-15T03:11:17.517Z,9.49
2023-05-15T03:13:44.129Z,9.61
2023-05-15T03:16:10.678Z,9.68
2023-05-15T03:18:37.266Z,9.71
2023-05-15T03:21:03.914Z,9.74
2023-05-15T03:23:32.086Z,9.81
2023-05-15T03:25:58.968Z,9.87
2023-05-15T03:28:25.704Z,9.93
2023-05-15T03:30:52.328Z,9.96
2023-05-15T03:33:18.874Z,9.98
2023-05-15T03:35:45.702Z,10.00
2023-05-15T03:38:12.300Z,10.04
2023-05-15T03:40:39.584Z,10.12
2023-05-15T03:43:06.575Z,10.18
2023-05-15T03:45:34.901Z,10.22
2023-05-15T03:48:01.496Z,10.26
2023-05-15T03:50:28.160Z,10.31
2023-05-15T03:52:54.766Z,10.37
2023-05-15T03:55:21.398Z,10.43
2023-05-15T03:57:48.041Z,10.51
2023-05-15T04:00:15.553Z,10.59
2023-05-15T04:02:43.052Z,10.69
2023-05-15T04:05:10.005Z,10.76
2023-05-15T04:07:37.110Z,10.83
2023-05-15T04:10:04.111Z,10.93
2023-05-15T04:12:34.152Z,11.01
2023-05-15T04:15:20.062Z,11.07
2023-05-15T04:17:47.608Z,11.14
2023-05-15T04:20:15.478Z,11.19
2023-05-15T04:22:42.509Z,11.26
2023-05-15T04:25:09.410Z,11.30
2023-05-15T04:27:36.497Z,11.33
2023-05-15T04:30:06.238Z,11.40
2023-05-15T04:32:36.287Z,11.45
2023-05-15T04:35:03.472Z,11.52
2023-05-15T04:37:30.544Z,11.57
2023-05-15T04:39:57.157Z,11.65
2023-05-15T04:42:23.748Z,11.74
2023-05-15T04:44:51.083Z,11.81
2023-05-15T04:47:17.637Z,11.87
2023-05-15T04:49:44.259Z,11.93
2023-05-15T04:52:10.836Z,11.99
2023-05-15T04:54:37.353Z,12.07
2023-05-15T04:57:04.014Z,12.16
2023-05-15T04:59:30.921Z,12.23
2023-05-15T05:01:57.607Z,12.29
2023-05-15T05:04:24.266Z,12.29
2023-05-15T05:06:50.878Z,12.30
2023-05-15T05:09:18.926Z,12.35
2023-05-15T05:11:45.779Z,12.36
2023-05-15T05:14:13.004Z,12.34
2023-05-15T05:16:39.551Z,12.39
2023-05-15T05:19:06.555Z,12.44
2023-05-15T05:21:33.244Z,12.51
2023-05-15T05:24:00.165Z,12.59
2023-05-15T05:26:26.797Z,12.66
2023-05-15T05:28:53.509Z,12.71
2023-05-15T05:31:20.574Z,12.79
2023-05-15T05:33:49.500Z,12.84
2023-05-15T05:36:16.112Z,12.87
2023-05-15T05:38:42.764Z,12.91
2023-05-15T05:41:09.315Z,12.95
2023-05-15T05:43:36.042Z,12.96
2023-05-15T05:46:03.067Z,12.98
2023-05-15T05:48:30.844Z,13.06
2023-05-15T05:50:57.724Z,13.12
2023-05-15T05:53:24.320Z,13.18
2023-05-15T05:55:50.998Z,13.22
2023-05-15T06:00:50.923Z,13.31
2023-05-15T06:03:17.654Z,13.33
2023-05-15T06:05:44.265Z,13.36
2023-05-15T06:08:11.406Z,13.40
2023-05-15T06:10:37.990Z,13.46
2023-05-15T06:13:04.594Z,13.52
2023-05-15T06:15:31.318Z,13.59
2023-05-15T06:17:57.916Z,13.66
2023-05-15T06:20:25.181Z,13.68
2023-05-15T06:22:52.020Z,13.70
2023-05-15T06:25:18.998Z,13.72
2023-05-15T06:27:45.585Z,13.74
2023-05-15T06:30:12.496Z,13.79
2023-05-15T06:32:39.842Z,13.88
2023-05-15T06:35:06.724Z,13.99
2023-05-15T06:37:33.673Z,14.07
2023-05-15T06:40:00.564Z,14.19
2023-05-15T06:42:27.559Z,14.32
2023-05-15T06:44:54.220Z,14.39
2023-05-15T06:47:20.760Z,14.39
2023-05-15T06:49:47.429Z,14.40
2023-05-15T06:52:14.074Z,14.49
2023-05-15T06:54:41.828Z,14.62
2023-05-15T06:57:08.566Z,14.80
2023-05-15T06:59:35.838Z,14.97
2023-05-15T07:02:03.218Z,15.15
2023-05-15T07:04:31.175Z,15.31
2023-05-15T07:06:57.997Z,15.43
2023-05-15T07:09:25.116Z,15.53
2023-05-15T07:11:51.709Z,15.58
2023-05-15T07:14:18.310Z,15.58
2023-05-15T07:16:45.734Z,15.51
2023-05-15T07:19:12.373Z,15.39
2023-05-15T07:21:39.707Z,15.36
2023-05-15T07:24:06.334Z,15.39
2023-05-15T07:26:40.825Z,15.35
2023-05-15T07:29:13.453Z,15.34
2023-05-15T07:31:40.678Z,15.41
2023-05-15T07:34:07.342Z,15.50
2023-05-15T07:36:33.926Z,15.59
2023-05-15T07:39:00.636Z,15.61
2023-05-15T07:41:27.179Z,15.66
2023-05-15T07:43:53.737Z,15.71
2023-05-15T07:46:20.417Z,15.72
2023-05-15T07:48:47.004Z,15.67
2023-05-15T07:51:13.910Z,15.65
2023-05-15T07:53:40.480Z,15.68
2023-05-15T07:56:07.179Z,15.73
2023-05-15T07:58:37.050Z,15.75
2023-05-15T08:01:03.933Z,15.73
2023-05-15T08:03:30.549Z,15.76
2023-05-15T08:05:57.197Z,15.79
2023-05-15T08:08:23.763Z,15.83
2023-05-15T08:10:50.348Z,15.93
2023-05-15T08:13:16.889Z,15.97
2023-05-15T08:15:43.751Z,16.01
2023-05-15T08:18:10.596Z,16.04
2023-05-15T08:20:37.935Z,16.07
2023-05-15T08:23:04.624Z,16.14
2023-05-15T08:25:31.284Z,16.19
2023-05-15T08:27:57.867Z,16.20
2023-05-15T08:30:24.450Z,16.21
2023-05-15T08:32:51.063Z,16.27
2023-05-15T08:35:17.718Z,16.39
2023-05-15T08:37:44.315Z,16.48
2023-05-15T08:40:11.153Z,16.51
2023-05-15T08:42:45.531Z,16.42
2023-05-15T08:45:14.953Z,16.31
2023-05-15T08:47:42.280Z,16.28
2023-05-15T08:50:14.184Z,16.30
2023-05-15T08:52:46.709Z,16.46
2023-05-15T08:55:16.631Z,16.67
2023-05-15T08:57:44.092Z,16.78
2023-05-15T09:00:14.511Z,16.85
2023-05-15T09:02:42.113Z,16.85
2023-05-15T09:05:09.725Z,16.92
2023-05-15T09:07:39.082Z,17.00
2023-05-15T09:10:06.227Z,17.14
2023-05-15T09:12:34.692Z,17.22
2023-05-15T09:15:08.902Z,17.27
2023-05-15T09:17:35.529Z,17.34
2023-05-15T09:20:04.879Z,17.36
2023-05-15T09:22:33.878Z,17.43
2023-05-15T09:25:03.036Z,17.47
2023-05-15T09:27:30.860Z,17.50
2023-05-15T09:30:08.143Z,17.57
2023-05-15T09:32:34.750Z,17.68
2023-05-15T09:35:01.741Z,17.73
2023-05-15T09:37:32.950Z,17.86
2023-05-15T09:40:09.624Z,17.96
2023-05-15T09:42:36.900Z,18.09
2023-05-15T09:45:03.602Z,18.23
2023-05-15T09:47:31.725Z,18.31
2023-05-15T09:49:58.518Z,18.27
2023-05-15T09:52:25.098Z,18.32
2023-05-15T09:54:51.970Z,18.58
2023-05-15T09:57:21.502Z,18.54
2023-05-15T09:59:48.331Z,18.49
2023-05-15T10:02:24.855Z,18.89
2023-05-15T10:04:57.858Z,19.96
2023-05-15T10:07:34.531Z,20.84
2023-05-15T10:10:02.540Z,21.59
2023-05-15T10:12:32.105Z,22.58
2023-05-15T10:15:00.149Z,23.62
2023-05-15T10:17:28.172Z,24.51
2023-05-15T10:19:58.939Z,25.42
2023-05-15T10:22:28.781Z,26.30
2023-05-15T10:25:03.441Z,26.78
2023-05-15T10:27:30.370Z,27.04
2023-05-15T10:29:58.214Z,27.41
2023-05-15T10:32:26.165Z,27.79
2023-05-15T10:34:54.388Z,28.25
2023-05-15T10:37:21.589Z,28.60
2023-05-15T10:39:48.724Z,28.58
2023-05-15T10:42:15.932Z,28.75
2023-05-15T10:44:42.741Z,29.18
2023-05-15T10:47:09.425Z,29.47
2023-05-15T10:49:36.326Z,30.01
2023-05-15T10:52:03.252Z,30.37
2023-05-15T10:54:30.546Z,30.57
2023-05-15T10:56:57.299Z,30.81
2023-05-15T10:59:31.395Z,31.06
2023-05-15T11:01:58.452Z,31.26
2023-05-15T11:04:26.793Z,31.33
2023-05-15T11:07:11.182Z,31.16
2023-05-15T11:09:38.083Z,30.40
2023-05-15T11:12:05.704Z,30.18
2023-05-15T11:14:39.451Z,30.34
2023-05-15T11:17:06.955Z,30.68
2023-05-15T11:19:35.358Z,31.01
2023-05-15T11:22:22.225Z,31.27
2023-05-15T11:25:10.525Z,31.49
2023-05-15T11:27:41.104Z,31.74
2023-05-15T11:30:07.879Z,31.89
2023-05-15T11:32:40.445Z,31.77
2023-05-15T11:35:25.901Z,31.56
2023-05-15T11:37:54.238Z,31.62
2023-05-15T11:40:25.322Z,31.51
2023-05-15T11:43:01.257Z,31.53
2023-05-15T11:45:37.689Z,31.82
2023-05-15T11:48:06.631Z,31.76
2023-05-15T11:50:34.517Z,31.60
2023-05-15T11:53:05.131Z,31.66
2023-05-15T11:55:33.316Z,31.23
2023-05-15T11:58:00.544Z,30.47
2023-05-15T12:00:27.453Z,30.20
2023-05-15T12:02:54.303Z,30.21
2023-05-15T12:05:21.105Z,30.42
2023-05-15T12:07:47.876Z,30.78
2023-05-15T12:10:14.750Z,31.11
2023-05-15T12:12:42.235Z,31.21
2023-05-15T12:15:09.775Z,31.14
2023-05-15T12:17:37.129Z,31.42
2023-05-15T12:20:04.499Z,31.74
2023-05-15T12:22:36.507Z,32.05
2023-05-15T12:25:03.157Z,32.35
2023-05-15T12:27:30.634Z,32.44
2023-05-15T12:29:57.285Z,32.68
2023-05-15T12:32:24.092Z,32.97
2023-05-15T12:34:50.779Z,33.23
2023-05-15T12:37:20.762Z,33.29
2023-05-15T12:39:54.480Z,33.43
2023-05-15T12:42:21.325Z,33.53
2023-05-15T12:44:52.394Z,33.66
2023-05-15T12:47:25.681Z,33.80
2023-05-15T12:49:56.763Z,33.90
2023-05-15T12:52:23.958Z,33.82
2023-05-15T12:54:50.495Z,33.74
2023-05-15T12:57:17.053Z,33.67
2023-05-15T12:59:43.789Z,33.64
2023-05-15T13:02:11.138Z,33.78
2023-05-15T13:04:37.964Z,33.94
2023-05-15T13:07:05.036Z,33.85
2023-05-15T13:09:33.246Z,33.80
2023-05-15T13:12:02.223Z,33.93
2023-05-15T13:14:32.027Z,34.01
2023-05-15T13:16:59.860Z,33.63
2023-05-15T13:19:26.474Z,32.47
2023-05-15T13:21:53.093Z,30.94
2023-05-15T13:24:19.829Z,30.40
2023-05-15T13:26:46.435Z,30.67
2023-05-15T13:29:13.050Z,30.77
2023-05-15T13:31:39.676Z,31.10
2023-05-15T13:34:06.545Z,31.36
2023-05-15T13:36:33.109Z,31.67
2023-05-15T13:38:59.685Z,31.88
2023-05-15T13:41:26.454Z,32.02
2023-05-15T13:43:53.035Z,32.28
2023-05-15T13:46:19.729Z,32.44
2023-05-15T13:48:46.383Z,32.51
2023-05-15T13:51:13.006Z,32.52
2023-05-15T13:53:39.540Z,32.43
2023-05-15T13:56:06.446Z,32.53
2023-05-15T13:58:33.260Z,32.47
2023-05-15T14:00:59.840Z,32.29
2023-05-15T14:03:26.601Z,32.14
2023-05-15T14:05:53.878Z,32.31
2023-05-15T14:08:21.153Z,32.29
2023-05-15T14:10:47.742Z,32.31
2023-05-15T14:13:14.435Z,32.23
2023-05-15T14:15:40.950Z,32.12
2023-05-15T14:18:07.589Z,31.99
2023-05-15T14:20:34.378Z,31.87
2023-05-15T14:23:01.052Z,31.66
2023-05-15T14:25:27.685Z,31.52
2023-05-15T14:27:54.243Z,31.26
2023-05-15T14:30:21.804Z,31.15
2023-05-15T14:32:48.681Z,31.00
2023-05-15T14:35:15.596Z,30.90
2023-05-15T14:37:43.407Z,30.70
2023-05-15T14:40:10.354Z,30.51
2023-05-15T14:42:37.097Z,30.30
2023-05-15T14:45:03.711Z,30.10
2023-05-15T14:47:31.584Z,29.55
2023-05-15T14:49:58.265Z,28.95
2023-05-15T14:52:25.051Z,28.68
2023-05-15T14:55:04.917Z,28.28
2023-05-15T14:57:35.803Z,27.99
2023-05-15T15:00:02.659Z,27.76
2023-05-15T15:02:31.405Z,27.48
2023-05-15T15:04:58.311Z,27.22
2023-05-15T15:07:28.963Z,27.03
2023-05-15T15:09:55.545Z,26.95
2023-05-15T15:12:22.082Z,26.93
2023-05-15T15:14:48.668Z,26.85
2023-05-15T15:17:15.289Z,26.85
2023-05-15T15:19:41.821Z,26.64
2023-05-15T15:22:08.450Z,26.19
2023-05-15T15:24:35.123Z,25.65
2023-05-15T15:27:01.705Z,25.03
2023-05-15T15:29:28.235Z,24.40
2023-05-15T15:31:54.891Z,23.83
2023-05-15T15:34:22.051Z,23.35
2023-05-15T15:36:48.624Z,23.05
2023-05-15T15:39:15.189Z,22.81
2023-05-15T15:41:41.729Z,22.66
2023-05-15T15:44:08.281Z,22.48
2023-05-15T15:46:34.931Z,22.36
2023-05-15T15:49:02.313Z,22.26
2023-05-15T15:51:30.488Z,22.11
2023-05-15T15:53:57.349Z,21.97
2023-05-15T15:56:23.935Z,21.77
2023-05-15T15:58:50.519Z,21.61
2023-05-15T16:01:17.298Z,21.46
2023-05-15T16:03:43.949Z,21.30
2023-05-15T16:06:10.580Z,21.21
2023-05-15T16:08:37.175Z,21.10
2023-05-15T16:11:03.757Z,20.98
2023-05-15T16:13:30.385Z,20.84
2023-05-15T16:15:56.974Z,20.73
2023-05-15T16:18:23.538Z,20.69
2023-05-15T16:20:50.131Z,20.63
2023-05-15T16:23:16.753Z,20.54
2023-05-15T16:25:44.427Z,20.46
2023-05-15T16:28:11.220Z,20.33
2023-05-15T16:30:48.202Z,20.23
2023-05-15T16:33:17.680Z,20.09
2023-05-15T16:35:44.450Z,19.98
2023-05-15T16:38:11.224Z,19.88
2023-05-15T16:40:37.820Z,19.77
2023-05-15T16:43:06.353Z,19.70
2023-05-15T16:45:32.966Z,19.67
2023-05-15T16:47:59.695Z,19.61
2023-05-15T16:50:27.084Z,19.54
2023-05-15T16:52:53.908Z,19.43
2023-05-15T16:55:20.621Z,19.31
2023-05-15T16:57:47.447Z,19.17
2023-05-15T17:00:14.951Z,19.04
2023-05-15T17:02:42.310Z,18.89
2023-05-15T17:05:09.503Z,18.73
2023-05-15T17:07:36.862Z,18.58
2023-05-15T17:10:03.993Z,18.42
2023-05-15T17:12:31.039Z,18.27
2023-05-15T17:14:57.657Z,18.14
2023-05-15T17:17:25.618Z,18.00
2023-05-15T17:19:53.006Z,17.86
2023-05-15T17:22:20.038Z,17.75
2023-05-15T17:24:51.484Z,17.64
2023-05-15T17:27:18.843Z,17.51
2023-05-15T17:29:45.565Z,17.39
2023-05-15T17:32:12.392Z,17.27
2023-05-15T17:34:39.341Z,17.15
2023-05-15T17:37:06.062Z,17.04
2023-05-15T17:39:32.761Z,16.93
2023-05-15T17:41:59.488Z,16.85
2023-05-15T17:44:29.939Z,16.74
2023-05-15T17:46:59.620Z,16.60
2023-05-15T17:49:26.476Z,16.46
2023-05-15T17:51:53.831Z,16.33
2023-05-15T17:54:20.689Z,16.20
2023-05-15T17:56:48.178Z,16.10
2023-05-15T17:59:14.798Z,16.06
2023-05-15T18:01:41.509Z,16.04
2023-05-15T18:04:08.507Z,16.00
2023-05-15T18:06:37.733Z,15.91
2023-05-15T18:09:05.229Z,15.87
2023-05-15T18:11:31.886Z,15.78
2023-05-15T18:13:58.456Z,15.69
2023-05-15T18:16:25.216Z,15.53
2023-05-15T18:18:52.242Z,15.44
2023-05-15T18:21:19.056Z,15.40
2023-05-15T18:23:45.700Z,15.35
2023-05-15T18:26:12.266Z,15.31
2023-05-15T18:28:38.891Z,15.24
2023-05-15T18:31:05.593Z,15.21
2023-05-15T18:33:32.550Z,15.24
2023-05-15T18:35:59.237Z,15.46
2023-05-15T18:38:25.896Z,15.71
2023-05-15T18:40:52.440Z,15.82
2023-05-15T18:43:19.086Z,15.87
2023-05-15T18:45:46.333Z,15.82
2023-05-15T18:48:12.870Z,15.62
2023-05-15T18:50:39.463Z,15.42
2023-05-15T18:53:06.314Z,15.26
2023-05-15T18:55:33.023Z,15.08
2023-05-15T18:57:59.670Z,14.93
2023-05-15T19:00:37.204Z,14.75
2023-05-15T19:03:05.525Z,14.56
2023-05-15T19:05:34.338Z,14.42
2023-05-15T19:08:01.221Z,14.32
2023-05-15T19:10:30.870Z,14.28
2023-05-15T19:12:57.878Z,14.25
2023-05-15T19:15:25.055Z,14.19
2023-05-15T19:17:52.081Z,14.12
2023-05-15T19:20:19.278Z,14.02
2023-05-15T19:22:46.322Z,13.91
2023-05-15T19:25:12.965Z,13.84
2023-05-15T19:27:39.607Z,13.80
2023-05-15T19:30:07.127Z,13.73
2023-05-15T19:32:34.343Z,13.74
2023-05-15T19:35:01.005Z,13.68
2023-05-15T19:37:27.681Z,13.63
2023-05-15T19:39:54.244Z,13.62
2023-05-15T19:42:20.864Z,13.61
2023-05-15T19:44:47.516Z,13.57
2023-05-15T19:47:14.232Z,13.48
2023-05-15T19:49:40.829Z,13.42
2023-05-15T19:52:07.466Z,13.33
2023-05-15T19:54:34.060Z,13.27
2023-05-15T19:57:02.988Z,13.24
2023-05-15T19:59:29.991Z,13.25
2023-05-15T20:01:56.746Z,13.27
2023-05-15T20:04:23.618Z,13.28
2023-05-15T20:06:50.289Z,13.26
2023-05-15T20:09:16.874Z,13.25
2023-05-15T20:11:43.636Z,13.22
2023-05-15T20:14:10.373Z,13.25
2023-05-15T20:16:37.108Z,13.35
2023-05-15T20:19:04.230Z,13.39
2023-05-15T20:21:32.144Z,13.53
2023-05-15T20:23:58.775Z,13.90
2023-05-15T20:26:25.353Z,14.37
2023-05-15T20:28:52.203Z,14.72
2023-05-15T20:31:18.848Z,14.99
2023-05-15T20:33:45.472Z,15.22
2023-05-15T20:36:12.577Z,15.36
2023-05-15T20:38:39.260Z,15.45
2023-05-15T20:41:06.000Z,15.47
2023-05-15T20:43:33.019Z,15.18
2023-05-15T20:45:59.869Z,14.69
2023-05-15T20:48:26.401Z,14.33
2023-05-15T20:50:53.500Z,14.42
2023-05-15T20:53:20.729Z,14.68
2023-05-15T20:55:47.306Z,14.92
2023-05-15T20:58:13.904Z,15.12
2023-05-15T21:00:40.622Z,15.20
2023-05-15T21:03:07.423Z,15.23
2023-05-15T21:05:34.148Z,15.20
2023-05-15T21:08:00.901Z,14.93
2023-05-15T21:10:27.540Z,14.72
2023-05-15T21:12:54.291Z,14.76
2023-05-15T21:15:21.342Z,14.90
2023-05-15T21:17:47.889Z,15.05
2023-05-15T21:20:15.138Z,15.17
2023-05-15T21:22:41.831Z,15.26
2023-05-15T21:25:08.661Z,15.44
2023-05-15T21:27:35.303Z,15.46
2023-05-15T21:30:01.885Z,15.49
2023-05-15T21:32:30.076Z,15.51
2023-05-15T21:34:56.649Z,15.52
2023-05-15T21:37:23.164Z,15.51
2023-05-15T21:39:49.706Z,15.58
2023-05-15T21:42:16.352Z,15.58
2023-05-15T21:44:43.128Z,15.54
2023-05-15T21:47:09.655Z,15.48
2023-05-15T21:49:36.235Z,15.43
2023-05-15T21:52:02.809Z,15.35
2023-05-15T21:54:30.256Z,15.27
2023-05-15T21:56:57.411Z,15.13
2023-05-15T21:59:25.762Z,15.04
2023-05-15T22:01:52.336Z,15.01
2023-05-15T22:04:18.883Z,14.99
2023-05-15T22:06:45.665Z,15.03
2023-05-15T22:09:12.225Z,15.01
2023-05-15T22:11:39.093Z,15.05
2023-05-15T22:14:06.200Z,14.90
2023-05-15T22:16:33.056Z,14.81
2023-05-15T22:18:59.633Z,14.54
2023-05-15T22:21:26.298Z,14.15
2023-05-15T22:23:53.418Z,13.76
2023-05-15T22:26:20.924Z,13.44
2023-05-15T22:28:48.898Z,13.18
2023-05-15T22:31:15.794Z,12.98
2023-05-15T22:33:42.403Z,12.76
2023-05-15T22:36:09.863Z,12.55
2023-05-15T22:38:36.456Z,12.34
2023-05-15T22:41:02.995Z,12.27
2023-05-15T22:43:29.658Z,12.32
2023-05-15T22:45:56.405Z,12.43
2023-05-15T22:48:23.255Z,12.55
2023-05-15T22:50:49.799Z,12.53
2023-05-15T22:53:16.452Z,12.46
2023-05-15T22:55:43.148Z,12.29
2023-05-15T22:58:09.728Z,12.10
2023-05-15T23:00:36.489Z,11.95
2023-05-15T23:03:03.125Z,11.84
2023-05-15T23:05:29.888Z,11.74
2023-05-15T23:07:56.422Z,11.65
2023-05-15T23:10:22.983Z,11.53
2023-05-15T23:12:49.573Z,11.44
2023-05-15T23:15:16.451Z,11.36
2023-05-15T23:17:43.325Z,11.31
2023-05-15T23:20:13.590Z,11.26
2023-05-15T23:22:40.470Z,11.20
2023-05-15T23:25:07.528Z,11.13
2023-05-15T23:27:34.258Z,11.08
2023-05-15T23:30:01.146Z,11.00
2023-05-15T23:32:27.745Z,10.95
2023-05-15T23:34:54.587Z,10.92
2023-05-15T23:37:21.268Z,10.89
2023-05-15T23:39:47.962Z,10.87
2023-05-15T23:42:14.679Z,10.84
2023-05-15T23:44:41.281Z,10.80
2023-05-15T23:47:08.144Z,10.87
2023-05-15T23:49:35.789Z,10.97
2023-05-15T23:52:02.489Z,11.07
2023-05-15T23:54:29.031Z,11.16
2023-05-15T23:56:58.651Z,11.19
2023-05-15T23:59:25.361Z,11.15
